Time;durP1;ratioP1;P1;durP2;ratioP2;P2;SDS_P1;SDS_P2;PMS_P1;PMS_P2;Temp;Humidity;BMP_temperature;BMP_pressure;BME280_temperature;BME280_humidity;BME280_pressure;Samples;Min_cycle;Max_cycle;Signal;HPM_P1;HPM_P2
2022/10/01 00:00:25;;;;;;;1.02;1.02;;;9.30;99.90;;;;;;5014018;28;20179;-70
2022/10/01 00:02:53;;;;;;;0.50;0.50;;;9.30;99.90;;;;;;5014105;28;20202;-68
2022/10/01 00:05:19;;;;;;;1.48;1.38;;;9.40;99.90;;;;;;5014111;28;20572;-68
2022/10/01 00:07:45;;;;;;;2.28;2.08;;;9.40;99.90;;;;;;5015000;28;20600;-70
2022/10/01 00:10:13;;;;;;;0.57;0.45;;;9.50;99.90;;;;;;5015220;28;20175;-69
2022/10/01 00:12:45;;;;;;;1.27;1.20;;;9.50;99.90;;;;;;5015370;28;20195;-67
2022/10/01 00:15:13;;;;;;;1.25;1.15;;;9.50;99.90;;;;;;5014875;28;20206;-70
2022/10/01 00:17:38;;;;;;;1.58;1.48;;;9.60;99.90;;;;;;5015337;28;20650;-69
2022/10/01 00:20:05;;;;;;;1.20;1.10;;;9.60;99.90;;;;;;5014919;28;20179;-68
2022/10/01 00:22:35;;;;;;;0.68;0.68;;;9.70;99.90;;;;;;5014690;28;20175;-67
2022/10/01 00:25:01;;;;;;;0.93;0.93;;;9.60;99.90;;;;;;5013237;28;20199;-70
2022/10/01 00:27:27;;;;;;;0.60;0.60;;;9.60;99.90;;;;;;5013726;28;20164;-68
2022/10/01 00:29:53;;;;;;;1.15;1.05;;;9.70;99.90;;;;;;5014715;28;20442;-70
2022/10/01 00:32:20;;;;;;;2.10;0.67;;;9.70;99.90;;;;;;5014893;28;20206;-68
2022/10/01 00:34:45;;;;;;;0.40;0.40;;;9.60;99.90;;;;;;5014797;28;20522;-70
2022/10/01 00:37:11;;;;;;;3.60;0.70;;;9.70;99.90;;;;;;5014887;28;20255;-68
2022/10/01 00:39:37;;;;;;;0.80;0.80;;;9.80;99.90;;;;;;5014641;28;20685;-68
2022/10/01 00:42:17;;;;;;;2.10;2.00;;;9.80;99.90;;;;;;5013608;28;20773;-70
2022/10/01 00:44:43;;;;;;;1.48;1.38;;;9.80;99.90;;;;;;5014791;28;20445;-68
2022/10/01 00:47:23;;;;;;;0.97;0.63;;;9.80;99.90;;;;;;5014548;28;20190;-68
2022/10/01 00:49:52;;;;;;;1.02;1.02;;;9.80;99.90;;;;;;5014551;28;20497;-68
2022/10/01 00:52:23;;;;;;;0.50;0.50;;;9.70;99.90;;;;;;5014638;28;20172;-70
2022/10/01 00:54:56;;;;;;;0.50;0.50;;;9.70;99.90;;;;;;5014571;28;20187;-69
2022/10/01 00:57:25;;;;;;;1.25;1.15;;;9.80;99.90;;;;;;5013621;28;20199;-69
2022/10/01 00:59:53;;;;;;;1.05;0.73;;;9.80;99.90;;;;;;5014488;28;20187;-70
2022/10/01 01:02:19;;;;;;;0.70;0.70;;;9.70;99.90;;;;;;5014337;28;20168;-69
2022/10/01 01:04:45;;;;;;;0.90;0.90;;;9.70;99.90;;;;;;5014420;28;20278;-68
2022/10/01 01:07:11;;;;;;;0.40;0.40;;;9.70;99.90;;;;;;5014251;28;20625;-69
2022/10/01 01:09:41;;;;;;;0.60;0.60;;;9.60;99.90;;;;;;5014103;28;20174;-70
2022/10/01 01:12:32;;;;;;;0.77;0.77;;;9.60;99.90;;;;;;5012925;28;20172;-70
2022/10/01 01:15:10;;;;;;;0.40;0.40;;;9.50;99.90;;;;;;5014369;28;20267;-68
2022/10/01 01:17:53;;;;;;;0.55;0.55;;;9.50;99.90;;;;;;5014073;28;20160;-70
2022/10/01 01:20:24;;;;;;;1.13;0.98;;;9.50;99.90;;;;;;5014112;28;20183;-69
2022/10/01 01:23:09;;;;;;;0.50;0.50;;;9.50;99.90;;;;;;5014054;28;20191;-70
2022/10/01 01:25:43;;;;;;;0.60;0.60;;;9.50;99.90;;;;;;5013997;28;20667;-70
2022/10/01 01:28:38;;;;;;;0.40;0.40;;;9.70;99.90;;;;;;5012686;28;20186;-68
2022/10/01 01:31:13;;;;;;;0.80;0.43;;;9.70;99.90;;;;;;5013806;28;20537;-68
2022/10/01 01:33:41;;;;;;;0.95;0.70;;;9.60;99.90;;;;;;5014178;28;20171;-71
2022/10/01 01:36:22;;;;;;;0.60;0.60;;;9.40;99.90;;;;;;5013818;28;20191;-67
2022/10/01 01:38:53;;;;;;;0.90;0.90;;;9.30;99.90;;;;;;5012445;28;20183;-68
2022/10/01 01:41:22;;;;;;;0.63;0.63;;;9.30;99.90;;;;;;5014057;28;20182;-69
2022/10/01 01:43:52;;;;;;;0.45;0.45;;;9.30;99.90;;;;;;5012504;28;20568;-71
2022/10/01 01:46:19;;;;;;;0.45;0.45;;;9.20;99.90;;;;;;5013550;28;20569;-69
2022/10/01 01:48:49;;;;;;;0.50;0.50;;;9.20;99.90;;;;;;5013968;28;20202;-69
2022/10/01 01:51:58;;;;;;;0.40;0.40;;;9.20;99.90;;;;;;5013971;28;20175;-67
2022/10/01 01:54:24;;;;;;;0.63;0.63;;;9.20;99.90;;;;;;4993804;28;20241;-70
2022/10/01 01:56:50;;;;;;;0.40;0.40;;;9.20;99.90;;;;;;5013677;28;20250;-69
2022/10/01 01:59:18;;;;;;;0.60;0.60;;;9.20;99.90;;;;;;5014007;28;20227;-71
2022/10/01 02:01:45;;;;;;;0.30;0.30;;;9.20;99.90;;;;;;5013575;28;20197;-69
2022/10/01 02:04:36;;;;;;;0.70;0.70;;;9.20;99.90;;;;;;5013392;28;20676;-68
2022/10/01 02:07:05;;;;;;;0.38;0.38;;;9.10;99.90;;;;;;5014060;28;20186;-70
2022/10/01 02:09:49;;;;;;;0.40;0.40;;;9.10;99.90;;;;;;5017524;28;20167;-69
2022/10/01 02:12:34;;;;;;;0.60;0.60;;;9.10;99.90;;;;;;5017521;28;20175;-71
2022/10/01 02:15:17;;;;;;;0.40;0.40;;;9.00;99.90;;;;;;5017445;28;20194;-69
2022/10/01 02:18:15;;;;;;;0.40;0.40;;;9.00;99.90;;;;;;5017472;28;20620;-70
2022/10/01 02:21:16;;;;;;;0.75;0.75;;;8.90;99.90;;;;;;5017459;28;20175;-68
2022/10/01 02:23:50;;;;;;;0.38;0.38;;;9.00;99.90;;;;;;5010245;28;20627;-68
2022/10/01 02:26:20;;;;;;;0.30;0.30;;;9.00;99.90;;;;;;5017197;28;20188;-70
2022/10/01 02:28:49;;;;;;;0.50;0.50;;;9.00;99.90;;;;;;5017360;28;20258;-70
2022/10/01 02:31:16;;;;;;;0.40;0.40;;;9.00;99.90;;;;;;5017095;28;20167;-70
2022/10/01 02:33:44;;;;;;;0.70;0.70;;;9.00;99.90;;;;;;5017467;28;20171;-70
2022/10/01 02:36:13;;;;;;;0.88;0.70;;;9.00;99.90;;;;;;5017025;28;20194;-70
2022/10/01 02:38:43;;;;;;;0.50;0.50;;;9.10;99.90;;;;;;5017263;28;20172;-69
2022/10/01 02:41:12;;;;;;;0.63;0.63;;;9.20;99.90;;;;;;5017012;28;20176;-68
2022/10/01 02:43:52;;;;;;;1.02;1.02;;;9.20;99.90;;;;;;5016836;28;20210;-69
2022/10/01 02:46:41;;;;;;;0.50;0.50;;;9.20;99.90;;;;;;5016830;28;20203;-68
2022/10/01 02:49:07;;;;;;;1.95;0.93;;;9.20;99.90;;;;;;5016811;28;20255;-68
2022/10/01 02:52:03;;;;;;;0.40;0.40;;;9.10;99.90;;;;;;5016957;28;20563;-71
2022/10/01 02:55:10;;;;;;;0.95;0.77;;;9.10;99.90;;;;;;5016934;28;20663;-70
2022/10/01 02:57:36;;;;;;;1.25;1.25;;;9.10;99.90;;;;;;5016622;28;20262;-70
2022/10/01 03:00:06;;;;;;;0.77;0.77;;;9.10;99.90;;;;;;5015184;28;20237;-70
2022/10/01 03:02:32;;;;;;;0.93;0.93;;;9.10;99.90;;;;;;5016551;28;20254;-71
2022/10/01 03:04:58;;;;;;;0.63;0.63;;;9.10;99.90;;;;;;5016545;28;20277;-68
2022/10/01 03:07:26;;;;;;;1.27;0.40;;;9.10;99.90;;;;;;5016480;28;20203;-70
2022/10/01 03:09:52;;;;;;;0.50;0.50;;;9.10;99.90;;;;;;5016364;28;20183;-69
2022/10/01 03:12:18;;;;;;;1.17;1.17;;;9.10;99.90;;;;;;5016498;28;20171;-70
2022/10/01 03:14:44;;;;;;;0.30;0.30;;;9.00;99.90;;;;;;5016307;28;20430;-69
2022/10/01 03:17:11;;;;;;;0.43;0.43;;;9.00;99.90;;;;;;5016617;28;20179;-69
2022/10/01 03:19:38;;;;;;;0.50;0.50;;;9.00;99.90;;;;;;5014984;28;20251;-69
2022/10/01 03:22:04;;;;;;;0.30;0.30;;;9.10;99.90;;;;;;5016367;28;20175;-68
2022/10/01 03:24:29;;;;;;;0.40;0.40;;;9.10;99.90;;;;;;5016200;28;20237;-69
2022/10/01 03:26:56;;;;;;;0.40;0.40;;;9.10;99.90;;;;;;5016102;28;20282;-69
2022/10/01 03:29:22;;;;;;;0.40;0.40;;;9.10;99.90;;;;;;5016081;28;20182;-68
2022/10/01 03:31:48;;;;;;;0.50;0.50;;;9.20;99.90;;;;;;5016069;28;20183;-69
2022/10/01 03:34:13;;;;;;;0.47;0.47;;;9.20;99.90;;;;;;5016004;28;20575;-68
2022/10/01 03:36:39;;;;;;;0.40;0.40;;;9.20;99.90;;;;;;5015942;28;20302;-69
2022/10/01 03:39:05;;;;;;;0.60;0.60;;;9.20;99.90;;;;;;5015724;28;20233;-70
2022/10/01 03:41:30;;;;;;;0.60;0.50;;;9.20;99.90;;;;;;5015973;28;20171;-68
2022/10/01 03:43:56;;;;;;;0.30;0.30;;;9.10;99.90;;;;;;5015782;28;20286;-70
2022/10/01 03:46:22;;;;;;;0.30;0.30;;;9.00;99.90;;;;;;5015581;28;20204;-69
2022/10/01 03:48:50;;;;;;;0.50;0.50;;;9.00;99.90;;;;;;5015638;28;20183;-68
2022/10/01 03:51:19;;;;;;;0.50;0.50;;;9.00;99.90;;;;;;5015679;28;20536;-70
2022/10/01 03:53:45;;;;;;;0.30;0.30;;;9.10;99.90;;;;;;5015733;28;20233;-69
2022/10/01 03:56:11;;;;;;;0.95;0.90;;;9.10;99.90;;;;;;5015514;28;20196;-70
2022/10/01 03:58:36;;;;;;;1.30;1.23;;;9.10;99.90;;;;;;5015520;28;20171;-68
2022/10/01 04:01:02;;;;;;;0.77;0.47;;;9.10;99.90;;;;;;5015403;28;20636;-70
2022/10/01 04:03:28;;;;;;;0.40;0.40;;;9.10;99.90;;;;;;5015317;28;20750;-67
2022/10/01 04:05:54;;;;;;;0.43;0.43;;;9.10;99.90;;;;;;5014018;28;20203;-70
2022/10/01 04:08:20;;;;;;;0.33;0.33;;;9.10;99.90;;;;;;5015485;28;20175;-70
2022/10/01 04:10:45;;;;;;;0.37;0.37;;;9.10;99.90;;;;;;5015154;28;20201;-70
2022/10/01 04:13:11;;;;;;;0.40;0.40;;;9.20;99.90;;;;;;5015259;28;20229;-69
2022/10/01 04:15:37;;;;;;;0.30;0.30;;;9.10;99.90;;;;;;5015230;28;20191;-70
2022/10/01 04:18:04;;;;;;;0.70;0.70;;;9.10;99.90;;;;;;5015251;28;20167;-67
2022/10/01 04:20:32;;;;;;;0.50;0.50;;;9.10;99.90;;;;;;5014993;28;20174;-71
2022/10/01 04:22:58;;;;;;;0.30;0.30;;;9.10;99.90;;;;;;5015138;28;20207;-69
2022/10/01 04:25:24;;;;;;;1.00;1.00;;;9.10;99.90;;;;;;5015094;28;20580;-69
2022/10/01 04:27:58;;;;;;;0.65;0.50;;;9.10;99.90;;;;;;5015048;28;20170;-69
2022/10/01 04:30:29;;;;;;;0.50;0.50;;;9.10;99.90;;;;;;5014643;28;20177;-69
2022/10/01 04:32:56;;;;;;;0.98;0.98;;;9.10;99.90;;;;;;5015144;28;20206;-69
2022/10/01 04:35:23;;;;;;;0.50;0.50;;;9.10;99.90;;;;;;5014903;28;20219;-70
2022/10/01 04:38:02;;;;;;;0.30;0.30;;;9.10;99.90;;;;;;5015011;28;20175;-69
2022/10/01 04:40:29;;;;;;;0.75;0.75;;;9.10;99.90;;;;;;5014739;28;20410;-71
2022/10/01 04:42:55;;;;;;;0.40;0.40;;;9.10;99.90;;;;;;5014607;28;20263;-70
2022/10/01 04:45:20;;;;;;;0.30;0.30;;;9.10;99.90;;;;;;5014712;28;20595;-70
2022/10/01 04:47:50;;;;;;;0.30;0.30;;;9.20;99.90;;;;;;5014563;28;20190;-67
2022/10/01 04:50:17;;;;;;;0.35;0.35;;;9.20;99.90;;;;;;5014448;28;20413;-68
2022/10/01 04:52:43;;;;;;;0.73;0.73;;;9.10;99.90;;;;;;5014411;28;20190;-69
2022/10/01 04:55:09;;;;;;;0.30;0.30;;;9.10;99.90;;;;;;5014603;28;20665;-69
2022/10/01 04:57:36;;;;;;;0.40;0.40;;;9.00;99.90;;;;;;5014880;28;20171;-68
2022/10/01 05:00:04;;;;;;;0.40;0.40;;;9.10;99.90;;;;;;5014464;28;20186;-69
2022/10/01 05:02:32;;;;;;;0.82;0.82;;;9.00;99.90;;;;;;5014992;28;20217;-68
2022/10/01 05:04:57;;;;;;;0.30;0.30;;;9.00;99.90;;;;;;5014542;28;20187;-70
2022/10/01 05:07:23;;;;;;;0.50;0.50;;;9.00;99.90;;;;;;5014514;28;20171;-69
2022/10/01 05:09:48;;;;;;;0.30;0.30;;;9.00;99.90;;;;;;5014160;28;20661;-70
2022/10/01 05:12:14;;;;;;;0.50;0.50;;;9.00;99.90;;;;;;5014620;28;20172;-69
2022/10/01 05:14:40;;;;;;;0.40;0.40;;;9.00;99.90;;;;;;5014554;28;20278;-70
2022/10/01 05:17:06;;;;;;;0.30;0.30;;;9.00;99.90;;;;;;5014854;28;20206;-71
2022/10/01 05:19:32;;;;;;;0.35;0.35;;;9.10;99.90;;;;;;5014181;28;20179;-71
2022/10/01 05:21:58;;;;;;;0.30;0.30;;;9.20;99.90;;;;;;5014061;28;20179;-68
2022/10/01 05:24:24;;;;;;;0.50;0.50;;;9.20;99.90;;;;;;5013465;28;20210;-70
2022/10/01 05:26:52;;;;;;;0.50;0.40;;;9.20;99.90;;;;;;5015067;28;20182;-69
2022/10/01 05:29:19;;;;;;;1.48;0.68;;;9.20;99.90;;;;;;5013453;28;20612;-71
2022/10/01 05:31:45;;;;;;;21.45;1.05;;;9.40;99.90;;;;;;5014063;28;20167;-68
2022/10/01 05:34:11;;;;;;;0.40;0.40;;;9.50;99.90;;;;;;5013779;28;20178;-71
2022/10/01 05:36:36;;;;;;;0.40;0.40;;;9.50;99.90;;;;;;5013371;28;20175;-70
2022/10/01 05:39:02;;;;;;;1.47;0.63;;;9.50;99.90;;;;;;5014026;28;20644;-71
2022/10/01 05:41:28;;;;;;;0.67;0.67;;;9.60;99.90;;;;;;5013799;28;20183;-70
2022/10/01 05:43:53;;;;;;;0.40;0.40;;;9.60;99.90;;;;;;5012972;28;20206;-70
2022/10/01 05:46:19;;;;;;;1.47;0.50;;;9.60;99.90;;;;;;5013512;28;20230;-70
2022/10/01 05:48:48;;;;;;;0.40;0.40;;;9.60;99.90;;;;;;5013697;28;20310;-68
2022/10/01 05:51:15;;;;;;;0.50;0.50;;;9.60;99.90;;;;;;5013745;28;20163;-68
2022/10/01 05:53:40;;;;;;;0.40;0.40;;;9.60;99.90;;;;;;5013631;28;20174;-66
2022/10/01 05:56:06;;;;;;;0.90;0.90;;;9.60;99.90;;;;;;5013561;28;20194;-67
2022/10/01 05:58:32;;;;;;;0.30;0.30;;;9.60;99.90;;;;;;5013764;28;20187;-70
2022/10/01 06:00:58;;;;;;;0.40;0.40;;;9.60;99.90;;;;;;5013402;28;20445;-71
2022/10/01 06:03:25;;;;;;;0.50;0.50;;;9.60;99.90;;;;;;5013580;28;20456;-70
2022/10/01 06:05:52;;;;;;;0.30;0.30;;;9.60;99.90;;;;;;5013490;28;20206;-69
2022/10/01 06:08:18;;;;;;;1.08;0.98;;;9.70;99.90;;;;;;5013585;28;20522;-69
2022/10/01 06:10:47;;;;;;;0.40;0.40;;;9.70;99.90;;;;;;5013408;28;20221;-70
2022/10/01 06:13:19;;;;;;;0.30;0.30;;;9.70;99.90;;;;;;5013589;28;20167;-69
2022/10/01 06:15:45;;;;;;;0.30;0.30;;;9.70;99.90;;;;;;5011963;28;20203;-70
2022/10/01 06:18:13;;;;;;;0.30;0.30;;;9.80;99.90;;;;;;5013221;28;20168;-70
2022/10/01 06:20:39;;;;;;;0.30;0.30;;;9.80;99.90;;;;;;5012363;28;20258;-70
2022/10/01 06:23:10;;;;;;;0.40;0.40;;;9.80;99.90;;;;;;5011838;28;20558;-69
2022/10/01 06:25:37;;;;;;;0.52;0.52;;;9.80;99.90;;;;;;5013339;28;20274;-69
2022/10/01 06:28:05;;;;;;;0.40;0.40;;;9.80;99.90;;;;;;5013181;28;20559;-69
2022/10/01 06:30:32;;;;;;;2.67;0.60;;;9.80;99.90;;;;;;5013122;28;20168;-68
2022/10/01 06:33:09;;;;;;;2.85;0.95;;;9.90;99.90;;;;;;5013506;28;20184;-70
2022/10/01 06:35:39;;;;;;;0.70;0.40;;;9.90;99.90;;;;;;5013318;28;20198;-70
2022/10/01 06:38:05;;;;;;;0.65;0.65;;;9.90;99.90;;;;;;5013343;28;20683;-68
2022/10/01 06:40:31;;;;;;;1.95;1.08;;;9.90;99.90;;;;;;5012978;28;20183;-70
2022/10/01 06:42:57;;;;;;;0.30;0.30;;;10.00;99.90;;;;;;5013050;28;20734;-70
2022/10/01 06:45:37;;;;;;;0.40;0.40;;;10.10;99.90;;;;;;5013177;28;20218;-70
2022/10/01 06:48:03;;;;;;;0.50;0.50;;;10.10;99.90;;;;;;5013098;28;20191;-70
2022/10/01 06:50:31;;;;;;;0.55;0.55;;;10.00;99.90;;;;;;5012768;28;20221;-69
2022/10/01 06:52:57;;;;;;;0.30;0.30;;;10.10;99.90;;;;;;5013075;28;20207;-69
2022/10/01 06:55:28;;;;;;;0.40;0.40;;;10.00;99.90;;;;;;5014900;28;20198;-69
2022/10/01 06:57:57;;;;;;;0.40;0.40;;;10.00;99.90;;;;;;5016514;28;20175;-70
2022/10/01 07:00:24;;;;;;;0.82;0.82;;;10.00;99.90;;;;;;5016457;28;20537;-68
2022/10/01 07:02:50;;;;;;;0.40;0.40;;;10.10;99.90;;;;;;5016147;28;20289;-69
2022/10/01 07:05:16;;;;;;;0.40;0.40;;;10.10;99.90;;;;;;5016583;28;20188;-70
2022/10/01 07:07:43;;;;;;;0.50;0.50;;;10.10;99.90;;;;;;5016337;28;20179;-68
2022/10/01 07:10:12;;;;;;;3.80;0.80;;;10.10;99.90;;;;;;5016169;28;20526;-68
2022/10/01 07:12:38;;;;;;;0.40;0.40;;;10.20;99.90;;;;;;5016544;28;20175;-70
2022/10/01 07:15:05;;;;;;;0.30;0.30;;;10.30;99.90;;;;;;5016086;28;20799;-70
2022/10/01 07:17:31;;;;;;;1.40;1.13;;;10.20;99.90;;;;;;5016197;28;20238;-70
2022/10/01 07:19:57;;;;;;;0.50;0.50;;;10.20;99.90;;;;;;5016005;28;20179;-69
2022/10/01 07:22:24;;;;;;;0.40;0.40;;;10.30;99.90;;;;;;5016475;28;20540;-70
2022/10/01 07:24:50;;;;;;;0.75;0.75;;;10.30;99.90;;;;;;5016033;28;20615;-68
2022/10/01 07:27:17;;;;;;;0.30;0.30;;;10.20;99.90;;;;;;5016151;28;20255;-68
2022/10/01 07:29:43;;;;;;;0.40;0.40;;;10.10;99.90;;;;;;5015764;28;20175;-67
2022/10/01 07:32:09;;;;;;;0.40;0.40;;;10.10;99.90;;;;;;5016017;28;20176;-68
2022/10/01 07:34:38;;;;;;;0.40;0.40;;;10.10;99.90;;;;;;5016135;28;20199;-70
2022/10/01 07:37:05;;;;;;;0.40;0.40;;;10.10;99.90;;;;;;5016421;28;20539;-70
2022/10/01 07:39:31;;;;;;;0.73;0.73;;;10.00;99.90;;;;;;5015660;28;20178;-71
2022/10/01 07:41:57;;;;;;;1.50;1.40;;;10.00;99.90;;;;;;5015774;28;20206;-69
2022/10/01 07:44:23;;;;;;;0.40;0.40;;;10.10;99.90;;;;;;5015666;28;20256;-68
2022/10/01 07:46:49;;;;;;;0.30;0.30;;;10.00;99.90;;;;;;5015658;28;20183;-68
2022/10/01 07:49:15;;;;;;;0.40;0.40;;;10.00;99.90;;;;;;5015438;28;20775;-68
2022/10/01 07:51:44;;;;;;;0.40;0.40;;;9.90;99.90;;;;;;5014904;28;20214;-69
2022/10/01 07:54:10;;;;;;;0.40;0.40;;;10.00;99.90;;;;;;5015800;28;20171;-68
2022/10/01 07:56:36;;;;;;;0.50;0.50;;;10.10;99.90;;;;;;5015963;28;20176;-70
2022/10/01 07:59:02;;;;;;;1.03;1.03;;;10.20;99.90;;;;;;5015490;28;20430;-70
2022/10/01 08:01:30;;;;;;;0.60;0.60;;;10.20;99.90;;;;;;5015690;28;20538;-67
2022/10/01 08:03:56;;;;;;;0.70;0.70;;;10.10;99.90;;;;;;5015005;28;20608;-69
2022/10/01 08:06:21;;;;;;;0.50;0.50;;;10.10;99.90;;;;;;5014997;28;20188;-71
2022/10/01 08:08:47;;;;;;;0.53;0.53;;;10.20;99.90;;;;;;5015406;28;20399;-68
2022/10/01 08:11:16;;;;;;;0.40;0.40;;;10.20;99.90;;;;;;5015843;28;20172;-70
2022/10/01 08:13:45;;;;;;;0.75;0.75;;;10.30;99.90;;;;;;5015882;28;20434;-71
2022/10/01 08:16:11;;;;;;;0.65;0.65;;;10.30;99.90;;;;;;5015828;28;20210;-70
2022/10/01 08:18:39;;;;;;;0.47;0.47;;;10.30;99.90;;;;;;5014522;28;20167;-69
2022/10/01 08:21:06;;;;;;;0.40;0.40;;;10.30;99.90;;;;;;5015061;28;20172;-71
2022/10/01 08:23:33;;;;;;;1.67;0.88;;;10.40;99.90;;;;;;5015329;28;20199;-68
2022/10/01 08:26:06;;;;;;;0.40;0.40;;;10.30;99.90;;;;;;5014517;28;20200;-69
2022/10/01 08:28:33;;;;;;;0.50;0.50;;;10.30;99.90;;;;;;5014809;28;20171;-68
2022/10/01 08:31:05;;;;;;;0.60;0.60;;;10.20;99.90;;;;;;5014493;28;20250;-71
2022/10/01 08:33:31;;;;;;;0.95;0.85;;;10.20;99.90;;;;;;5014946;28;20760;-68
2022/10/01 08:36:01;;;;;;;0.40;0.40;;;10.30;99.90;;;;;;5013060;28;20298;-67
2022/10/01 08:38:27;;;;;;;0.60;0.40;;;10.40;99.90;;;;;;5012856;28;20182;-68
2022/10/01 08:40:53;;;;;;;0.40;0.40;;;10.40;99.90;;;;;;5013808;28;20180;-71
2022/10/01 08:43:28;;;;;;;0.40;0.40;;;10.60;99.90;;;;;;5012953;28;20197;-71
2022/10/01 08:45:59;;;;;;;0.82;0.82;;;10.50;99.90;;;;;;5011856;28;20195;-71
2022/10/01 08:48:30;;;;;;;1.13;0.63;;;10.60;99.90;;;;;;5013317;28;20171;-71
2022/10/01 08:51:12;;;;;;;0.52;0.40;;;10.70;99.90;;;;;;5014631;28;20171;-71
2022/10/01 08:53:46;;;;;;;0.52;0.50;;;10.80;99.90;;;;;;5014887;28;20175;-68
2022/10/01 08:56:33;;;;;;;0.45;0.45;;;10.70;99.90;;;;;;5014477;28;20538;-67
2022/10/01 08:59:04;;;;;;;0.90;0.77;;;10.80;99.90;;;;;;5014552;28;20606;-68
2022/10/01 09:01:30;;;;;;;0.75;0.75;;;10.90;99.90;;;;;;5014703;28;20178;-71
2022/10/01 09:03:57;;;;;;;0.30;0.30;;;11.00;99.90;;;;;;5014421;28;20664;-69
2022/10/01 09:06:25;;;;;;;0.40;0.40;;;11.10;99.90;;;;;;5014198;28;20791;-70
2022/10/01 09:08:51;;;;;;;0.82;0.68;;;11.20;99.90;;;;;;5014152;28;20171;-70
2022/10/01 09:11:25;;;;;;;0.40;0.40;;;11.20;99.80;;;;;;5014316;28;20172;-70
2022/10/01 09:14:18;;;;;;;0.40;0.40;;;11.20;99.60;;;;;;5014305;28;20185;-69
2022/10/01 09:16:50;;;;;;;0.82;0.82;;;11.30;99.80;;;;;;5013556;28;20770;-69
2022/10/01 09:19:30;;;;;;;0.30;0.30;;;11.30;99.60;;;;;;5014184;28;20176;-70
2022/10/01 09:21:58;;;;;;;0.30;0.30;;;11.40;99.60;;;;;;5014145;28;20425;-71
2022/10/01 09:24:27;;;;;;;0.77;0.77;;;11.50;99.20;;;;;;5013888;28;20458;-69
2022/10/01 09:26:52;;;;;;;0.50;0.50;;;11.60;99.30;;;;;;5014007;28;20168;-69
2022/10/01 09:29:26;;;;;;;0.40;0.40;;;11.70;99.50;;;;;;5013691;28;20178;-71
2022/10/01 09:31:52;;;;;;;0.77;0.77;;;11.70;99.00;;;;;;5014430;28;20173;-68
2022/10/01 09:34:38;;;;;;;0.50;0.50;;;11.50;99.90;;;;;;5014034;28;20494;-69
2022/10/01 09:37:27;;;;;;;0.50;0.50;;;11.70;98.50;;;;;;5013955;28;20395;-69
2022/10/01 09:40:03;;;;;;;0.30;0.30;;;11.60;98.70;;;;;;5014128;28;20413;-68
2022/10/01 09:42:29;;;;;;;0.50;0.50;;;11.60;98.90;;;;;;5013816;28;20410;-69
2022/10/01 09:44:56;;;;;;;0.60;0.60;;;11.70;99.30;;;;;;5013652;28;20497;-71
2022/10/01 09:47:24;;;;;;;0.70;0.70;;;11.70;99.60;;;;;;5014255;28;20423;-71
2022/10/01 09:49:50;;;;;;;0.40;0.40;;;11.80;99.80;;;;;;5013635;28;20439;-68
2022/10/01 09:52:33;;;;;;;0.30;0.30;;;11.90;99.30;;;;;;5013858;28;20411;-70
2022/10/01 09:55:16;;;;;;;0.50;0.50;;;11.90;98.50;;;;;;5013860;28;20493;-70
2022/10/01 09:58:11;;;;;;;0.30;0.30;;;11.90;98.90;;;;;;5013884;28;20430;-69
2022/10/01 10:00:39;;;;;;;0.30;0.30;;;12.10;99.80;;;;;;5013457;28;20426;-69
2022/10/01 10:03:05;;;;;;;0.40;0.40;;;12.20;99.70;;;;;;5013807;28;20448;-69
2022/10/01 10:05:48;;;;;;;0.50;0.50;;;12.20;99.60;;;;;;5013501;28;20502;-69
2022/10/01 10:08:21;;;;;;;0.40;0.40;;;12.20;99.90;;;;;;5013831;28;20459;-68
2022/10/01 10:10:59;;;;;;;0.40;0.40;;;12.20;99.70;;;;;;5013584;28;20447;-68
2022/10/01 10:13:49;;;;;;;0.30;0.30;;;12.20;99.90;;;;;;5013490;28;20406;-68
2022/10/01 10:16:25;;;;;;;0.40;0.40;;;12.20;99.90;;;;;;5013577;28;20427;-70
2022/10/01 10:18:56;;;;;;;3.60;0.63;;;12.10;99.90;;;;;;5013575;28;20400;-68
2022/10/01 10:21:28;;;;;;;0.30;0.30;;;12.10;99.90;;;;;;5013570;28;20399;-70
2022/10/01 10:23:59;;;;;;;0.40;0.40;;;12.10;99.90;;;;;;5013112;28;20451;-68
2022/10/01 10:26:37;;;;;;;1.23;1.13;;;12.00;99.90;;;;;;5013106;28;20833;-69
2022/10/01 10:29:06;;;;;;;0.40;0.40;;;11.90;99.90;;;;;;5015300;28;20489;-69
2022/10/01 10:31:45;;;;;;;0.30;0.30;;;11.80;99.90;;;;;;5017355;28;20411;-69
2022/10/01 10:34:17;;;;;;;0.57;0.57;;;11.80;99.90;;;;;;5017142;28;20394;-68
2022/10/01 10:36:44;;;;;;;0.30;0.30;;;12.00;99.90;;;;;;5017099;28;20414;-71
2022/10/01 10:39:33;;;;;;;0.40;0.40;;;12.00;99.90;;;;;;5016968;28;20449;-68
2022/10/01 10:42:01;;;;;;;0.63;0.63;;;11.90;99.90;;;;;;5017057;28;20414;-71
2022/10/01 10:44:33;;;;;;;0.90;0.90;;;11.90;99.90;;;;;;5017063;28;20478;-68
2022/10/01 10:47:02;;;;;;;0.30;0.30;;;12.00;99.90;;;;;;5017179;28;20769;-71
2022/10/01 10:49:34;;;;;;;0.30;0.30;;;11.90;99.90;;;;;;5016731;28;20419;-70
2022/10/01 10:52:00;;;;;;;0.50;0.50;;;11.80;99.90;;;;;;5017018;28;20986;-68
2022/10/01 10:54:38;;;;;;;0.30;0.30;;;11.80;99.90;;;;;;5016798;28;20430;-70
2022/10/01 10:57:28;;;;;;;0.47;0.47;;;11.80;99.90;;;;;;5016127;28;20986;-69
2022/10/01 10:59:58;;;;;;;0.38;0.38;;;11.70;99.90;;;;;;5016707;28;20414;-70
2022/10/01 11:02:29;;;;;;;0.30;0.30;;;11.60;99.90;;;;;;5016733;28;20647;-68
2022/10/01 11:04:57;;;;;;;0.70;0.55;;;11.50;99.90;;;;;;5016656;28;20450;-71
2022/10/01 11:07:25;;;;;;;0.30;0.30;;;11.50;99.90;;;;;;5016732;28;20171;-68
2022/10/01 11:10:14;;;;;;;0.50;0.50;;;11.60;99.90;;;;;;5016357;28;20402;-71
2022/10/01 11:13:11;;;;;;;1.85;0.50;;;11.40;99.90;;;;;;5016627;28;20945;-69
2022/10/01 11:15:49;;;;;;;1.40;1.30;;;11.40;99.90;;;;;;5016386;28;20199;-70
2022/10/01 11:18:41;;;;;;;0.30;0.30;;;11.30;99.90;;;;;;5016347;28;20160;-70
2022/10/01 11:21:32;;;;;;;0.30;0.30;;;11.40;99.90;;;;;;5016224;28;20179;-70
2022/10/01 11:24:00;;;;;;;0.30;0.30;;;11.40;99.90;;;;;;5016072;28;20234;-67
2022/10/01 11:26:55;;;;;;;0.60;0.60;;;11.50;99.90;;;;;;5016045;28;20187;-69
2022/10/01 11:30:12;;;;;;;0.40;0.40;;;11.60;99.90;;;;;;5008600;28;20430;-70
2022/10/01 11:32:56;;;;;;;0.40;0.40;;;11.70;99.90;;;;;;4993513;28;20188;-69
2022/10/01 11:35:42;;;;;;;0.57;0.57;;;11.70;99.90;;;;;;5016121;28;20197;-70
2022/10/01 11:38:30;;;;;;;1.73;0.47;;;11.60;99.90;;;;;;5015971;28;20167;-69
2022/10/01 11:41:18;;;;;;;0.40;0.40;;;11.60;99.90;;;;;;5014836;28;20250;-69
2022/10/01 11:43:58;;;;;;;0.50;0.50;;;11.50;99.90;;;;;;5016048;28;20233;-70
2022/10/01 11:46:42;;;;;;;0.30;0.30;;;11.60;99.90;;;;;;5015563;28;20248;-71
2022/10/01 11:49:22;;;;;;;0.30;0.30;;;11.70;99.90;;;;;;5015694;28;20172;-71
2022/10/01 11:51:55;;;;;;;0.30;0.30;;;11.70;99.90;;;;;;5014780;28;20542;-71
2022/10/01 11:54:25;;;;;;;0.30;0.30;;;11.70;99.90;;;;;;5015514;28;20172;-70
2022/10/01 11:59:49;;;;;;;2.33;1.57;;;11.70;99.90;;;;;;5015817;28;20548;-70
2022/10/01 12:02:31;;;;;;;0.40;0.40;;;11.80;99.90;;;;;;5015823;28;20406;-68
2022/10/01 12:05:02;;;;;;;0.30;0.30;;;11.80;99.90;;;;;;5015282;28;21021;-71
2022/10/01 12:07:44;;;;;;;0.40;0.40;;;11.90;99.90;;;;;;5015588;28;20417;-70
2022/10/01 12:10:24;;;;;;;0.93;0.93;;;12.00;99.90;;;;;;5015340;28;20425;-72
2022/10/01 12:13:03;;;;;;;0.30;0.30;;;12.10;99.90;;;;;;5015390;28;20414;-69
2022/10/01 12:15:36;;;;;;;0.40;0.40;;;12.10;99.90;;;;;;5014342;28;20434;-71
2022/10/01 12:18:05;;;;;;;0.77;0.77;;;12.10;99.90;;;;;;5015382;28;20409;-68
2022/10/01 12:21:00;;;;;;;0.30;0.30;;;12.30;99.90;;;;;;5014901;28;20553;-70
2022/10/01 12:23:48;;;;;;;0.40;0.40;;;12.40;99.90;;;;;;5006306;28;20462;-68
2022/10/01 12:26:43;;;;;;;0.30;0.30;;;12.40;99.90;;;;;;5014481;28;20975;-72
2022/10/01 12:29:25;;;;;;;0.40;0.40;;;12.40;99.90;;;;;;5015077;28;20437;-71
2022/10/01 12:32:12;;;;;;;0.30;0.30;;;12.50;99.90;;;;;;5015376;28;20731;-70
2022/10/01 12:34:43;;;;;;;0.30;0.30;;;12.50;99.90;;;;;;5014703;28;20788;-68
2022/10/01 12:37:34;;;;;;;0.40;0.40;;;12.40;99.90;;;;;;5014808;28;20402;-68
2022/10/01 12:40:17;;;;;;;0.40;0.40;;;12.50;99.90;;;;;;5013571;28;20438;-68
2022/10/01 12:42:52;;;;;;;0.40;0.40;;;12.60;99.90;;;;;;5013416;28;20763;-70
2022/10/01 12:45:23;;;;;;;0.30;0.30;;;12.60;99.90;;;;;;5013775;28;20843;-69
2022/10/01 12:48:05;;;;;;;0.30;0.30;;;12.50;99.90;;;;;;5014698;28;20426;-67
2022/10/01 12:50:44;;;;;;;0.47;0.47;;;12.50;99.90;;;;;;5014888;28;20403;-67
2022/10/01 12:53:22;;;;;;;0.30;0.30;;;12.60;99.90;;;;;;5014973;28;20808;-71
2022/10/01 12:56:20;;;;;;;0.30;0.30;;;12.50;99.90;;;;;;5014545;28;20432;-68
2022/10/01 12:58:48;;;;;;;0.70;0.70;;;12.50;99.90;;;;;;5012944;28;20414;-69
2022/10/01 13:01:30;;;;;;;0.60;0.60;;;12.60;99.90;;;;;;5014273;28;20409;-70
2022/10/01 13:04:20;;;;;;;0.30;0.30;;;12.70;99.90;;;;;;5013723;28;20446;-71
2022/10/01 13:07:00;;;;;;;0.30;0.30;;;12.70;99.90;;;;;;5014884;28;20430;-70
2022/10/01 13:09:28;;;;;;;0.50;0.50;;;12.70;99.90;;;;;;5014477;28;20395;-71
2022/10/01 13:12:24;;;;;;;0.30;0.30;;;12.70;99.90;;;;;;5014730;28;20734;-69
2022/10/01 13:14:52;;;;;;;0.50;0.40;;;12.80;99.90;;;;;;4978347;28;20583;-71
2022/10/01 13:17:45;;;;;;;0.30;0.30;;;12.70;99.90;;;;;;5013598;28;20414;-69
2022/10/01 13:20:32;;;;;;;0.30;0.30;;;12.60;99.90;;;;;;5014236;28;20489;-70